Time;durP1;ratioP1;P1;durP2;ratioP2;P2;SDS_P1;SDS_P2;PMS_P1;PMS_P2;Temp;Humidity;BMP_temperature;BMP_pressure;BME280_temperature;BME280_humidity;BME280_pressure;Samples;Min_cycle;Max_cycle;Signal;HPM_P1;HPM_P2
2023/12/21 00:02:07;;;;;;;1.10;0.70;;;8.70;99.90;;;;;;5052442;28;20202;-57
2023/12/21 00:04:33;;;;;;;1.57;0.60;;;8.70;99.90;;;;;;5052344;28;20217;-56
2023/12/21 00:07:00;;;;;;;2.87;1.10;;;8.70;99.90;;;;;;5052610;28;20201;-58
2023/12/21 00:09:27;;;;;;;1.57;0.73;;;8.70;99.90;;;;;;5052456;28;20206;-56
2023/12/21 00:11:54;;;;;;;3.03;0.93;;;8.70;99.90;;;;;;5052305;28;20214;-57
2023/12/21 00:14:20;;;;;;;2.87;1.10;;;8.70;99.90;;;;;;5051910;28;20237;-57
2023/12/21 00:16:47;;;;;;;3.23;1.70;;;8.70;99.90;;;;;;5052125;28;20217;-57
2023/12/21 00:19:15;;;;;;;3.57;2.00;;;8.70;99.90;;;;;;5052192;28;20212;-57
2023/12/21 00:21:42;;;;;;;2.50;1.30;;;8.80;99.90;;;;;;5051039;28;20210;-58
2023/12/21 00:24:08;;;;;;;1.47;1.03;;;8.80;99.90;;;;;;5052101;28;20574;-57
2023/12/21 00:26:35;;;;;;;1.90;0.73;;;8.80;99.90;;;;;;5051907;28;20694;-57
2023/12/21 00:29:01;;;;;;;1.17;0.60;;;8.80;99.90;;;;;;5051800;28;20206;-57
2023/12/21 00:31:28;;;;;;;1.77;0.80;;;8.80;99.90;;;;;;5051621;28;20212;-56
2023/12/21 00:33:55;;;;;;;1.73;0.77;;;8.80;99.90;;;;;;5051736;28;20234;-57
2023/12/21 00:36:23;;;;;;;1.70;0.80;;;8.70;99.90;;;;;;5051864;28;20679;-57
2023/12/21 00:38:49;;;;;;;3.37;0.70;;;8.70;99.90;;;;;;5051774;28;20218;-56
2023/12/21 00:41:16;;;;;;;1.40;0.90;;;8.60;99.90;;;;;;5051675;28;20259;-59
2023/12/21 00:43:43;;;;;;;0.97;0.53;;;8.60;99.90;;;;;;5051633;28;20302;-57
2023/12/21 00:46:09;;;;;;;1.20;0.70;;;8.70;99.90;;;;;;5052052;28;20209;-57
2023/12/21 00:48:36;;;;;;;2.43;0.87;;;8.70;99.90;;;;;;5051720;28;20211;-57
2023/12/21 00:51:03;;;;;;;0.93;0.50;;;8.70;99.90;;;;;;5051328;28;20225;-58
2023/12/21 00:53:31;;;;;;;1.03;0.53;;;8.70;99.90;;;;;;5051437;28;20226;-57
2023/12/21 00:55:58;;;;;;;0.60;0.40;;;8.70;99.90;;;;;;5051796;28;20205;-57
2023/12/21 00:58:24;;;;;;;0.93;0.40;;;8.70;99.90;;;;;;5051537;28;20209;-57
2023/12/21 01:00:51;;;;;;;1.00;0.40;;;8.80;99.90;;;;;;5051265;28;20641;-58
2023/12/21 01:03:18;;;;;;;1.43;0.57;;;8.80;99.90;;;;;;5051359;28;20222;-58
2023/12/21 01:05:44;;;;;;;0.57;0.33;;;8.90;99.90;;;;;;5051571;28;20209;-58
2023/12/21 01:08:11;;;;;;;0.50;0.40;;;9.00;99.90;;;;;;5051729;28;20258;-57
2023/12/21 01:10:39;;;;;;;1.33;0.47;;;9.00;99.90;;;;;;5051327;28;20205;-58
2023/12/21 01:13:07;;;;;;;0.30;0.20;;;9.00;99.90;;;;;;5051154;28;20608;-57
2023/12/21 01:15:33;;;;;;;0.83;0.50;;;9.00;99.90;;;;;;5051339;28;20251;-57
2023/12/21 01:18:00;;;;;;;1.23;0.40;;;9.00;99.90;;;;;;5051348;28;20205;-58
2023/12/21 01:20:27;;;;;;;1.27;0.40;;;8.90;99.90;;;;;;5050783;28;20703;-57
2023/12/21 01:22:53;;;;;;;0.40;0.40;;;8.90;99.90;;;;;;5050975;28;20256;-58
2023/12/21 01:25:20;;;;;;;0.50;0.20;;;8.90;99.90;;;;;;5050983;28;20675;-59
2023/12/21 01:27:48;;;;;;;0.17;0.17;;;9.00;99.90;;;;;;5050941;28;20251;-58
2023/12/21 01:30:15;;;;;;;1.20;0.50;;;8.90;99.90;;;;;;5050983;28;20210;-57
2023/12/21 01:32:41;;;;;;;0.10;0.10;;;9.00;99.90;;;;;;5053540;28;20310;-57
2023/12/21 01:35:09;;;;;;;0.67;0.37;;;9.00;99.90;;;;;;5055078;28;20216;-57
2023/12/21 01:37:36;;;;;;;0.83;0.50;;;9.00;99.90;;;;;;5055130;28;20212;-57
2023/12/21 01:40:03;;;;;;;0.50;0.20;;;9.00;99.90;;;;;;5055126;28;20229;-57
2023/12/21 01:42:30;;;;;;;0.37;0.10;;;9.10;99.90;;;;;;5054986;28;20317;-58
2023/12/21 01:44:58;;;;;;;0.23;0.23;;;9.10;99.90;;;;;;5055152;28;20208;-57
2023/12/21 01:47:25;;;;;;;0.83;0.40;;;9.10;99.90;;;;;;5054675;28;20209;-57
2023/12/21 01:49:52;;;;;;;0.60;0.30;;;9.00;99.90;;;;;;5054653;28;20596;-57
2023/12/21 01:52:20;;;;;;;1.13;0.20;;;9.00;99.90;;;;;;5054656;28;20206;-57
2023/12/21 01:54:47;;;;;;;1.27;0.40;;;9.00;99.90;;;;;;5054763;28;20205;-57
2023/12/21 01:57:14;;;;;;;0.47;0.33;;;8.90;99.90;;;;;;5054600;28;20214;-57
2023/12/21 01:59:40;;;;;;;0.20;0.20;;;8.90;99.90;;;;;;5054413;28;20206;-58
2023/12/21 02:02:08;;;;;;;1.37;0.40;;;9.00;99.90;;;;;;5054730;28;20263;-57
2023/12/21 02:04:35;;;;;;;0.80;0.40;;;8.90;99.90;;;;;;5054657;28;20216;-57
2023/12/21 02:07:02;;;;;;;0.30;0.20;;;8.90;99.90;;;;;;5054437;28;20300;-58
2023/12/21 02:09:28;;;;;;;0.47;0.20;;;8.80;99.90;;;;;;5054272;28;20255;-58
2023/12/21 02:11:55;;;;;;;1.10;0.40;;;8.90;99.90;;;;;;5054560;28;20232;-56
2023/12/21 02:14:22;;;;;;;0.20;0.10;;;8.90;99.90;;;;;;5054178;28;20237;-57
2023/12/21 02:16:56;;;;;;;0.17;0.10;;;8.90;99.90;;;;;;5054015;28;20703;-57
2023/12/21 02:19:24;;;;;;;0.13;0.10;;;8.90;99.90;;;;;;5053961;28;20578;-57
2023/12/21 02:21:55;;;;;;;1.37;0.30;;;9.00;99.90;;;;;;5053763;28;20615;-57
2023/12/21 02:24:23;;;;;;;0.60;0.40;;;9.00;99.90;;;;;;5054027;28;20233;-57
2023/12/21 02:26:50;;;;;;;1.90;0.20;;;9.00;99.90;;;;;;5053970;28;20213;-57
2023/12/21 02:29:17;;;;;;;0.47;0.20;;;9.00;99.90;;;;;;5053946;28;20686;-58
2023/12/21 02:31:44;;;;;;;0.27;0.13;;;9.00;99.90;;;;;;5053882;28;20206;-57
2023/12/21 02:34:10;;;;;;;0.60;0.13;;;9.10;99.90;;;;;;5054045;28;20658;-57
2023/12/21 02:36:37;;;;;;;0.57;0.20;;;9.20;99.90;;;;;;5053917;28;20209;-58
2023/12/21 02:39:04;;;;;;;0.50;0.20;;;9.20;99.90;;;;;;5053832;28;20259;-57
2023/12/21 02:41:32;;;;;;;0.30;0.20;;;9.10;99.90;;;;;;5053444;28;20303;-58
2023/12/21 02:43:58;;;;;;;0.20;0.17;;;9.20;99.90;;;;;;5052749;28;20232;-57
2023/12/21 02:46:27;;;;;;;0.40;0.30;;;9.20;99.90;;;;;;5053642;28;20701;-58
2023/12/21 02:48:54;;;;;;;0.10;0.10;;;9.20;99.90;;;;;;5053846;28;20233;-57
2023/12/21 02:51:21;;;;;;;0.30;0.20;;;9.30;99.90;;;;;;5053408;28;20212;-57
2023/12/21 02:53:47;;;;;;;0.17;0.10;;;9.30;99.90;;;;;;5053453;28;20225;-57
2023/12/21 02:56:14;;;;;;;0.20;0.10;;;9.40;99.90;;;;;;5053388;28;20205;-57
2023/12/21 02:58:42;;;;;;;0.07;0.03;;;9.40;99.90;;;;;;5053573;28;20209;-57
2023/12/21 03:01:09;;;;;;;0.07;0.07;;;9.40;99.90;;;;;;5053287;28;20225;-57
2023/12/21 03:03:35;;;;;;;0.20;0.10;;;9.50;99.90;;;;;;5053141;28;20325;-57
2023/12/21 03:06:03;;;;;;;0.20;0.10;;;9.50;99.90;;;;;;5053369;28;20667;-57
2023/12/21 03:08:29;;;;;;;0.37;0.20;;;9.40;99.90;;;;;;5053532;28;20209;-57
2023/12/21 03:10:56;;;;;;;0.10;0.10;;;9.40;99.90;;;;;;5053051;28;20206;-58
2023/12/21 03:13:22;;;;;;;0.77;0.10;;;9.40;99.90;;;;;;5053056;28;20245;-57
2023/12/21 03:15:51;;;;;;;0.10;0.10;;;9.40;99.90;;;;;;5053284;28;20236;-56
2023/12/21 03:18:17;;;;;;;1.10;0.20;;;9.40;99.90;;;;;;5053370;28;20209;-57
2023/12/21 03:20:44;;;;;;;0.10;0.10;;;9.50;99.90;;;;;;5052836;28;20226;-57
2023/12/21 03:23:11;;;;;;;0.40;0.20;;;9.50;99.90;;;;;;5052932;28;20233;-58
2023/12/21 03:25:37;;;;;;;0.60;0.13;;;9.50;99.90;;;;;;5052843;28;20616;-57
2023/12/21 03:28:06;;;;;;;0.40;0.10;;;9.40;99.90;;;;;;5053087;28;20205;-59
2023/12/21 03:30:32;;;;;;;0.20;0.10;;;9.40;99.90;;;;;;5052666;28;20737;-58
2023/12/21 03:33:00;;;;;;;1.50;0.20;;;9.60;99.90;;;;;;5052704;28;20225;-58
2023/12/21 03:35:26;;;;;;;0.27;0.20;;;9.50;99.90;;;;;;5052822;28;20715;-58
2023/12/21 03:37:53;;;;;;;0.33;0.10;;;9.40;99.90;;;;;;5052586;28;20268;-58
2023/12/21 03:40:20;;;;;;;0.77;0.10;;;9.40;99.90;;;;;;5052704;28;20213;-57
2023/12/21 03:42:51;;;;;;;0.07;0.00;;;9.50;99.90;;;;;;5052594;28;20234;-58
2023/12/21 03:45:18;;;;;;;0.03;0.03;;;9.50;99.90;;;;;;5052628;28;20751;-57
2023/12/21 03:47:45;;;;;;;0.10;0.10;;;9.50;99.90;;;;;;5053048;28;20202;-57
2023/12/21 03:50:13;;;;;;;0.63;0.20;;;9.50;99.90;;;;;;5052421;28;20304;-58
2023/12/21 03:52:40;;;;;;;0.57;0.10;;;9.50;99.90;;;;;;5052857;28;20225;-58
2023/12/21 03:55:07;;;;;;;0.17;0.10;;;9.50;99.90;;;;;;5052060;28;20692;-58
2023/12/21 03:57:34;;;;;;;0.10;0.10;;;9.50;99.90;;;;;;5052433;28;20629;-57
2023/12/21 04:00:01;;;;;;;0.20;0.20;;;9.40;99.90;;;;;;5052236;28;20748;-58
2023/12/21 04:02:29;;;;;;;0.50;0.10;;;9.50;99.90;;;;;;5052021;28;20229;-58
2023/12/21 04:04:55;;;;;;;0.13;0.13;;;9.40;99.90;;;;;;5052376;28;20209;-58
2023/12/21 04:07:23;;;;;;;0.43;0.20;;;9.30;99.90;;;;;;5052020;28;20694;-57
2023/12/21 04:09:50;;;;;;;0.53;0.10;;;9.30;99.90;;;;;;5052100;28;20209;-57
2023/12/21 04:12:17;;;;;;;0.10;0.10;;;9.30;99.90;;;;;;5051917;28;20289;-56
2023/12/21 04:14:44;;;;;;;0.10;0.03;;;9.40;99.90;;;;;;5052397;28;20225;-57
2023/12/21 04:17:10;;;;;;;0.83;0.80;;;9.40;99.90;;;;;;5051902;28;20214;-57
2023/12/21 04:19:37;;;;;;;12.97;6.60;;;9.40;99.90;;;;;;5051672;28;20232;-59
2023/12/21 04:22:04;;;;;;;0.53;0.30;;;9.30;99.90;;;;;;5052326;28;20275;-58
2023/12/21 04:24:32;;;;;;;1.10;0.13;;;9.30;99.90;;;;;;5051935;28;20651;-57
2023/12/21 04:26:58;;;;;;;0.20;0.10;;;9.40;99.90;;;;;;5051970;28;20279;-59
2023/12/21 04:29:25;;;;;;;0.40;0.20;;;9.30;99.90;;;;;;5051932;28;20276;-57
2023/12/21 04:31:52;;;;;;;0.20;0.20;;;9.30;99.90;;;;;;5051625;28;20213;-59
2023/12/21 04:34:19;;;;;;;0.27;0.20;;;9.30;99.90;;;;;;5051633;28;20229;-57
2023/12/21 04:36:45;;;;;;;0.30;0.20;;;9.30;99.90;;;;;;5051883;28;20285;-57
2023/12/21 04:39:12;;;;;;;0.63;0.10;;;9.20;99.90;;;;;;5051947;28;20575;-57
2023/12/21 04:41:40;;;;;;;0.83;0.20;;;9.20;99.90;;;;;;5051621;28;20260;-60
2023/12/21 04:44:07;;;;;;;0.20;0.10;;;9.00;99.90;;;;;;5051502;28;20296;-58
2023/12/21 04:46:34;;;;;;;0.10;0.10;;;8.90;99.90;;;;;;5051660;28;20292;-58
2023/12/21 04:49:00;;;;;;;0.43;0.10;;;8.90;99.90;;;;;;5051835;28;20217;-57
2023/12/21 04:51:27;;;;;;;0.93;0.20;;;8.90;99.90;;;;;;5051532;28;20300;-58
2023/12/21 04:53:54;;;;;;;0.20;0.20;;;9.00;99.90;;;;;;5051692;28;20229;-57
2023/12/21 04:56:20;;;;;;;0.20;0.20;;;9.10;99.90;;;;;;5052085;28;20216;-57
2023/12/21 04:58:48;;;;;;;0.20;0.20;;;9.10;99.90;;;;;;5052454;28;20255;-57
2023/12/21 05:01:15;;;;;;;0.10;0.10;;;9.00;99.90;;;;;;5051576;28;20316;-58
2023/12/21 05:03:42;;;;;;;0.57;0.20;;;9.00;99.90;;;;;;5051953;28;20287;-56
2023/12/21 05:06:09;;;;;;;0.50;0.20;;;9.00;99.90;;;;;;5051331;28;20675;-57
2023/12/21 05:08:35;;;;;;;0.10;0.10;;;9.00;99.90;;;;;;5052464;28;20221;-59
2023/12/21 05:11:02;;;;;;;0.20;0.20;;;9.00;99.90;;;;;;5051789;28;20210;-57
2023/12/21 05:13:29;;;;;;;0.20;0.13;;;9.00;99.90;;;;;;5051811;28;20256;-58
2023/12/21 05:15:57;;;;;;;0.10;0.10;;;9.10;99.90;;;;;;5051536;28;20210;-58
2023/12/21 05:18:24;;;;;;;0.20;0.20;;;9.20;99.90;;;;;;5051361;28;20232;-57
2023/12/21 05:20:51;;;;;;;0.23;0.20;;;9.20;99.90;;;;;;5051090;28;20209;-56
2023/12/21 05:23:18;;;;;;;0.13;0.13;;;9.20;99.90;;;;;;5051210;28;20649;-57
2023/12/21 05:25:45;;;;;;;0.20;0.17;;;9.20;99.90;;;;;;5051239;28;20220;-57
2023/12/21 05:28:13;;;;;;;0.67;0.23;;;9.20;99.90;;;;;;5052280;28;20209;-58
2023/12/21 05:30:40;;;;;;;0.30;0.30;;;9.20;99.90;;;;;;5051157;28;20217;-58
2023/12/21 05:33:08;;;;;;;0.20;0.20;;;9.10;99.90;;;;;;5051203;28;20268;-58
2023/12/21 05:35:35;;;;;;;0.27;0.20;;;9.10;99.90;;;;;;5051109;28;20254;-57
2023/12/21 05:38:02;;;;;;;0.93;0.20;;;9.20;99.90;;;;;;5051295;28;20213;-57
2023/12/21 05:40:29;;;;;;;0.30;0.10;;;9.20;99.90;;;;;;5050852;28;20576;-57
2023/12/21 05:42:55;;;;;;;0.50;0.50;;;9.20;99.90;;;;;;5050674;28;20316;-58
2023/12/21 05:45:22;;;;;;;0.50;0.20;;;9.20;99.90;;;;;;5051071;28;20581;-57
2023/12/21 05:47:48;;;;;;;0.10;0.10;;;9.20;99.90;;;;;;5050914;28;20687;-57
2023/12/21 05:50:16;;;;;;;0.10;0.10;;;9.30;99.90;;;;;;5050739;28;20233;-57
2023/12/21 05:52:43;;;;;;;0.57;0.23;;;9.30;99.90;;;;;;5050722;28;20230;-57
2023/12/21 05:55:15;;;;;;;0.40;0.30;;;9.40;99.90;;;;;;5050648;28;20213;-57
2023/12/21 05:57:41;;;;;;;0.20;0.20;;;9.30;99.90;;;;;;5051207;28;20284;-58
2023/12/21 06:00:09;;;;;;;0.60;0.50;;;9.30;99.90;;;;;;5050569;28;20331;-57
2023/12/21 06:02:36;;;;;;;0.30;0.20;;;9.30;99.90;;;;;;5050424;28;20271;-58
2023/12/21 06:05:03;;;;;;;2.03;1.30;;;9.40;99.90;;;;;;5050436;28;20206;-58
2023/12/21 06:07:31;;;;;;;1.20;0.33;;;9.40;99.90;;;;;;5050618;28;20260;-58
2023/12/21 06:09:58;;;;;;;0.57;0.30;;;9.40;99.90;;;;;;5050751;28;20209;-57
2023/12/21 06:12:24;;;;;;;0.60;0.20;;;9.40;99.90;;;;;;5050308;28;20206;-58
2023/12/21 06:14:51;;;;;;;0.63;0.30;;;9.40;99.90;;;;;;5050246;28;20672;-58
2023/12/21 06:17:18;;;;;;;0.37;0.37;;;9.40;99.90;;;;;;5050609;28;20675;-57
2023/12/21 06:19:45;;;;;;;0.47;0.40;;;9.40;99.90;;;;;;5053901;28;20756;-58
2023/12/21 06:22:12;;;;;;;1.10;0.30;;;9.40;99.90;;;;;;5053775;28;20232;-58
2023/12/21 06:24:40;;;;;;;1.03;0.50;;;9.40;99.90;;;;;;5053874;28;20679;-58
2023/12/21 06:27:06;;;;;;;0.33;0.33;;;9.30;99.90;;;;;;5054128;28;20210;-58
2023/12/21 06:29:33;;;;;;;0.73;0.37;;;9.40;99.90;;;;;;5054009;28;20245;-57
2023/12/21 06:32:00;;;;;;;0.40;0.20;;;9.40;99.90;;;;;;5053870;28;20259;-57
2023/12/21 06:34:27;;;;;;;0.40;0.40;;;9.40;99.90;;;;;;5053464;28;20225;-57
2023/12/21 06:36:53;;;;;;;0.97;0.80;;;9.40;99.90;;;;;;5053748;28;20205;-57
2023/12/21 06:39:20;;;;;;;0.43;0.43;;;9.50;99.90;;;;;;5053822;28;20255;-57
2023/12/21 06:41:48;;;;;;;0.80;0.60;;;9.40;99.90;;;;;;5053498;28;20622;-57
2023/12/21 06:44:15;;;;;;;0.70;0.40;;;9.40;99.90;;;;;;5053990;28;20226;-56
2023/12/21 06:46:42;;;;;;;0.70;0.60;;;9.40;99.90;;;;;;5053786;28;20213;-56
2023/12/21 06:49:10;;;;;;;1.40;0.87;;;9.40;99.90;;;;;;5053423;28;20219;-58
2023/12/21 06:51:37;;;;;;;0.40;0.30;;;9.40;99.90;;;;;;5053104;28;20205;-58
2023/12/21 06:54:04;;;;;;;1.53;0.70;;;9.50;99.90;;;;;;5052958;28;20773;-57
2023/12/21 06:56:31;;;;;;;0.60;0.60;;;9.40;99.90;;;;;;5053355;28;20206;-55
2023/12/21 06:58:59;;;;;;;3.27;1.43;;;9.50;99.90;;;;;;5053550;28;20457;-55
2023/12/21 07:01:26;;;;;;;0.53;0.53;;;9.50;99.90;;;;;;5053256;28;20261;-55
2023/12/21 07:03:53;;;;;;;0.43;0.40;;;9.50;99.90;;;;;;5053145;28;20275;-55
2023/12/21 07:06:20;;;;;;;0.50;0.30;;;9.50;99.90;;;;;;5053146;28;20309;-55
2023/12/21 07:08:47;;;;;;;0.87;0.40;;;9.60;99.90;;;;;;5053306;28;20211;-55
2023/12/21 07:11:14;;;;;;;1.63;0.60;;;9.70;99.90;;;;;;5052885;28;20213;-55
2023/12/21 07:13:40;;;;;;;0.90;0.40;;;9.80;99.90;;;;;;5052495;28;20641;-55
2023/12/21 07:16:09;;;;;;;0.50;0.30;;;9.80;99.90;;;;;;5052911;28;20670;-55
2023/12/21 07:18:35;;;;;;;0.93;0.47;;;9.80;99.90;;;;;;5053195;28;20253;-56
2023/12/21 07:21:02;;;;;;;0.23;0.23;;;9.80;99.90;;;;;;5052888;28;20300;-56
2023/12/21 07:23:29;;;;;;;0.60;0.40;;;9.70;99.90;;;;;;5052410;28;20234;-56
2023/12/21 07:25:55;;;;;;;0.20;0.20;;;9.60;99.90;;;;;;5053045;28;20626;-56
2023/12/21 07:28:22;;;;;;;0.20;0.20;;;9.70;99.90;;;;;;5052465;28;20209;-55
2023/12/21 07:30:49;;;;;;;1.83;0.40;;;9.70;99.90;;;;;;5051870;28;20620;-56
2023/12/21 07:33:17;;;;;;;0.20;0.20;;;9.70;99.90;;;;;;5052575;28;20312;-55
2023/12/21 07:35:44;;;;;;;0.13;0.13;;;9.70;99.90;;;;;;5052575;28;20263;-56
2023/12/21 07:38:12;;;;;;;0.23;0.20;;;9.80;99.90;;;;;;5052340;28;20300;-56
2023/12/21 07:40:38;;;;;;;1.47;0.50;;;9.80;99.90;;;;;;5052320;28;20206;-55
2023/12/21 07:43:05;;;;;;;0.20;0.20;;;9.80;99.90;;;;;;5052041;28;20772;-56
2023/12/21 07:45:32;;;;;;;0.37;0.20;;;9.80;99.90;;;;;;5052429;28;20201;-56
2023/12/21 07:47:58;;;;;;;2.27;1.80;;;9.70;99.90;;;;;;5052191;28;20230;-56
2023/12/21 07:50:27;;;;;;;0.50;0.30;;;9.80;99.90;;;;;;5051995;28;20668;-56
2023/12/21 07:52:56;;;;;;;0.53;0.43;;;9.80;99.90;;;;;;5051978;28;20225;-55
2023/12/21 07:55:23;;;;;;;0.60;0.40;;;9.80;99.90;;;;;;5052261;28;20208;-55
2023/12/21 07:57:49;;;;;;;0.30;0.27;;;9.80;99.90;;;;;;5052224;28;20205;-56
2023/12/21 08:00:17;;;;;;;4.10;3.20;;;9.80;99.90;;;;;;5052388;28;20205;-56
2023/12/21 08:02:45;;;;;;;0.93;0.87;;;9.90;99.90;;;;;;5051913;28;20627;-56
2023/12/21 08:05:12;;;;;;;0.70;0.67;;;9.90;99.90;;;;;;5052359;28;20248;-57
2023/12/21 08:07:40;;;;;;;0.20;0.10;;;10.00;99.90;;;;;;5052052;28;20201;-55
2023/12/21 08:10:08;;;;;;;0.93;0.37;;;10.00;99.90;;;;;;5052437;28;20214;-55
2023/12/21 08:12:35;;;;;;;0.97;0.30;;;10.00;99.90;;;;;;5052047;28;20315;-55
2023/12/21 08:15:02;;;;;;;2.00;1.10;;;10.20;99.90;;;;;;5052020;28;20671;-56
2023/12/21 08:17:29;;;;;;;0.30;0.20;;;10.20;99.90;;;;;;5052082;28;20251;-55
2023/12/21 08:19:56;;;;;;;0.77;0.40;;;10.20;99.90;;;;;;5051704;28;20601;-55
2023/12/21 08:22:23;;;;;;;0.40;0.30;;;10.20;99.90;;;;;;5051350;28;20256;-55
2023/12/21 08:24:52;;;;;;;0.37;0.33;;;10.10;99.90;;;;;;5051654;28;20210;-54
2023/12/21 08:27:19;;;;;;;1.53;0.23;;;10.10;99.90;;;;;;5051388;28;20664;-55
2023/12/21 08:29:46;;;;;;;0.63;0.40;;;10.40;99.90;;;;;;5051638;28;20205;-55
2023/12/21 08:32:13;;;;;;;0.10;0.10;;;10.20;99.90;;;;;;5051642;28;20638;-55
2023/12/21 08:34:40;;;;;;;0.20;0.20;;;10.20;99.90;;;;;;5051383;28;20216;-56
2023/12/21 08:37:06;;;;;;;1.07;0.30;;;10.20;99.90;;;;;;5051453;28;20205;-56
2023/12/21 08:39:33;;;;;;;0.97;0.70;;;10.30;99.90;;;;;;5051280;28;20212;-55
2023/12/21 08:42:02;;;;;;;0.73;0.43;;;10.30;99.90;;;;;;5050514;28;20226;-55
2023/12/21 08:44:29;;;;;;;0.63;0.20;;;10.30;99.90;;;;;;5051588;28;20233;-55
2023/12/21 08:46:56;;;;;;;0.20;0.10;;;10.40;99.90;;;;;;5051176;28;20263;-54
2023/12/21 08:49:22;;;;;;;0.23;0.20;;;10.40;99.90;;;;;;5050984;28;20205;-54
2023/12/21 08:51:52;;;;;;;0.20;0.20;;;10.40;99.90;;;;;;5050950;28;20209;-55
2023/12/21 08:54:18;;;;;;;0.20;0.20;;;10.50;99.90;;;;;;5051280;28;20275;-54
2023/12/21 08:56:46;;;;;;;0.83;0.30;;;10.50;99.90;;;;;;5051130;28;20209;-54
2023/12/21 08:59:14;;;;;;;1.03;0.77;;;10.50;99.90;;;;;;5051126;28;20251;-55
2023/12/21 09:01:40;;;;;;;0.23;0.20;;;10.40;99.90;;;;;;5051259;28;20202;-55
2023/12/21 09:04:07;;;;;;;0.63;0.60;;;10.40;99.90;;;;;;5050929;28;20229;-55
2023/12/21 09:06:34;;;;;;;0.33;0.20;;;10.40;99.90;;;;;;5051151;28;20213;-54
2023/12/21 09:09:02;;;;;;;0.30;0.17;;;10.40;99.90;;;;;;5051009;28;20201;-56
2023/12/21 09:11:29;;;;;;;0.30;0.20;;;10.40;99.90;;;;;;5051007;28;20209;-55
2023/12/21 09:13:55;;;;;;;2.20;1.40;;;10.40;99.90;;;;;;5050726;28;20233;-55
2023/12/21 09:16:24;;;;;;;0.93;0.93;;;10.40;99.90;;;;;;5050876;28;20656;-54
2023/12/21 09:18:52;;;;;;;0.20;0.20;;;10.40;99.90;;;;;;5050927;28;20300;-54
2023/12/21 09:21:18;;;;;;;0.20;0.20;;;10.40;99.90;;;;;;5050881;28;20216;-55
2023/12/21 09:23:46;;;;;;;0.27;0.20;;;10.40;99.90;;;;;;5050607;28;20225;-55
2023/12/21 09:26:13;;;;;;;0.30;0.10;;;10.30;99.90;;;;;;5050967;28;20244;-56
2023/12/21 09:28:41;;;;;;;0.43;0.27;;;10.30;99.90;;;;;;5051088;28;20210;-55
2023/12/21 09:31:08;;;;;;;1.10;0.87;;;10.40;99.90;;;;;;5050599;28;20218;-55
2023/12/21 09:33:36;;;;;;;0.37;0.37;;;10.30;99.90;;;;;;5050680;28;20284;-55
2023/12/21 09:36:03;;;;;;;0.30;0.30;;;10.40;99.90;;;;;;5050838;28;20288;-56
2023/12/21 09:38:31;;;;;;;1.33;0.77;;;10.40;99.90;;;;;;5050982;28;20213;-55
2023/12/21 09:40:58;;;;;;;0.30;0.30;;;10.50;99.90;;;;;;5050734;28;20215;-56
2023/12/21 09:43:25;;;;;;;0.40;0.37;;;10.50;99.90;;;;;;5050169;28;20640;-55
2023/12/21 09:45:54;;;;;;;1.17;0.30;;;10.40;99.90;;;;;;5050765;28;20240;-56
2023/12/21 09:48:21;;;;;;;0.67;0.40;;;10.40;99.90;;;;;;5050724;28;20206;-55
2023/12/21 09:50:50;;;;;;;0.20;0.20;;;10.40;99.90;;;;;;5050811;28;20639;-56
2023/12/21 09:53:17;;;;;;;1.43;0.40;;;10.50;99.90;;;;;;5052632;28;20218;-56
2023/12/21 09:55:46;;;;;;;0.30;0.30;;;10.50;99.90;;;;;;5054689;28;20209;-55
2023/12/21 09:58:13;;;;;;;0.10;0.10;;;10.50;99.90;;;;;;5054633;28;20559;-55
2023/12/21 10:00:40;;;;;;;1.33;0.20;;;10.50;99.90;;;;;;5054306;28;20206;-56
2023/12/21 10:03:07;;;;;;;3.23;1.00;;;10.50;99.90;;;;;;5054612;28;20283;-55
2023/12/21 10:05:34;;;;;;;2.77;0.80;;;10.60;99.90;;;;;;5054652;28;20263;-57
2023/12/21 10:08:03;;;;;;;0.50;0.40;;;10.60;99.90;;;;;;5054772;28;20205;-55
2023/12/21 10:10:30;;;;;;;1.50;1.00;;;10.60;99.90;;;;;;5054576;28;20592;-56
2023/12/21 10:12:57;;;;;;;0.87;0.40;;;10.60;99.90;;;;;;5075708;22;20230;-60
2023/12/21 10:15:24;;;;;;;0.60;0.50;;;10.60;99.90;;;;;;5028364;28;20207;-61
2023/12/21 10:17:51;;;;;;;0.30;0.20;;;10.70;99.90;;;;;;5023559;28;20609;-59
2023/12/21 10:20:18;;;;;;;0.80;0.50;;;10.70;99.90;;;;;;5025437;28;20202;-60
2023/12/21 10:22:45;;;;;;;1.10;0.63;;;10.70;99.90;;;;;;5027017;28;20222;-60
2023/12/21 10:25:13;;;;;;;0.27;0.20;;;10.70;99.90;;;;;;5042178;28;20226;-60
2023/12/21 10:27:41;;;;;;;0.10;0.10;;;10.80;99.90;;;;;;5042624;28;20207;-60
2023/12/21 10:30:08;;;;;;;3.13;0.57;;;10.90;99.90;;;;;;5045889;28;20292;-60
2023/12/21 10:32:35;;;;;;;0.87;0.57;;;10.90;99.90;;;;;;5037900;28;20631;-60
2023/12/21 10:35:02;;;;;;;0.30;0.20;;;11.00;99.90;;;;;;5045135;28;20504;-60
2023/12/21 10:37:29;;;;;;;1.83;1.33;;;11.10;99.90;;;;;;5045515;28;20205;-60
2023/12/21 10:39:57;;;;;;;0.60;0.50;;;11.10;99.90;;;;;;5042878;28;20217;-60
2023/12/21 10:42:25;;;;;;;1.20;0.40;;;11.20;99.90;;;;;;5041616;28;20202;-60
2023/12/21 10:44:52;;;;;;;0.10;0.10;;;11.30;99.90;;;;;;5043088;28;20226;-60
2023/12/21 10:47:20;;;;;;;0.30;0.23;;;11.20;99.90;;;;;;5045273;28;20201;-60
2023/12/21 10:49:50;;;;;;;0.27;0.20;;;11.30;99.90;;;;;;5043979;28;20228;-60
2023/12/21 10:52:18;;;;;;;0.20;0.17;;;11.40;99.90;;;;;;5041702;28;20210;-60
2023/12/21 10:54:47;;;;;;;0.63;0.23;;;11.30;99.90;;;;;;5042013;28;20296;-60
2023/12/21 10:57:16;;;;;;;2.17;0.40;;;11.40;99.90;;;;;;5044987;28;20201;-61
2023/12/21 10:59:46;;;;;;;0.83;0.43;;;11.50;99.90;;;;;;5044555;28;20767;-60
2023/12/21 11:02:14;;;;;;;1.27;0.50;;;11.50;99.90;;;;;;5037927;28;20205;-60
2023/12/21 11:04:43;;;;;;;2.50;0.40;;;11.70;99.90;;;;;;5043784;28;20229;-60
2023/12/21 11:07:13;;;;;;;1.93;0.50;;;11.70;99.90;;;;;;5037841;28;20244;-60
2023/12/21 11:09:41;;;;;;;0.20;0.20;;;11.70;99.90;;;;;;5044558;28;20221;-61
2023/12/21 11:12:08;;;;;;;0.60;0.50;;;11.50;99.90;;;;;;5033249;28;20210;-60
2023/12/21 11:14:36;;;;;;;0.30;0.30;;;11.40;99.90;;;;;;5041439;28;20226;-60
2023/12/21 11:17:08;;;;;;;2.97;0.60;;;11.30;99.90;;;;;;5043905;28;20738;-61
2023/12/21 11:19:38;;;;;;;2.50;2.20;;;11.20;99.90;;;;;;5044717;28;20210;-60
2023/12/21 11:22:05;;;;;;;1.77;1.00;;;11.10;99.90;;;;;;5041411;28;20635;-60
2023/12/21 11:24:33;;;;;;;0.30;0.30;;;11.10;99.90;;;;;;5040730;28;20680;-61
2023/12/21 11:27:01;;;;;;;0.63;0.50;;;11.00;99.90;;;;;;5043619;28;20205;-61
2023/12/21 11:29:29;;;;;;;0.20;0.20;;;11.10;99.90;;;;;;5044188;28;20229;-61
2023/12/21 11:31:56;;;;;;;2.50;1.17;;;11.00;99.90;;;;;;5042241;28;20737;-61
2023/12/21 11:34:37;;;;;;;0.70;0.60;;;11.00;99.90;;;;;;5040648;28;20447;-61
2023/12/21 11:37:17;;;;;;;1.13;0.60;;;11.00;99.90;;;;;;5043661;28;20229;-61
2023/12/21 11:39:45;;;;;;;2.43;1.43;;;11.00;99.90;;;;;;5043982;28;20293;-61
2023/12/21 11:42:12;;;;;;;1.03;0.40;;;11.10;99.90;;;;;;5040999;28;20211;-61
2023/12/21 11:44:38;;;;;;;3.40;1.67;;;11.10;99.90;;;;;;5040739;28;20305;-61
2023/12/21 11:47:06;;;;;;;2.10;0.93;;;11.10;99.90;;;;;;5049173;28;20206;-61
2023/12/21 11:49:34;;;;;;;1.73;0.87;;;11.10;99.90;;;;;;5047429;28;20202;-60
2023/12/21 11:52:01;;;;;;;2.57;1.20;;;11.10;99.90;;;;;;5041333;28;20235;-60
2023/12/21 11:54:28;;;;;;;0.70;0.50;;;11.10;99.90;;;;;;5040288;28;20635;-60
2023/12/21 11:57:09;;;;;;;1.03;0.67;;;11.00;99.90;;;;;;5042053;28;20263;-60
2023/12/21 11:59:36;;;;;;;0.47;0.33;;;11.10;99.90;;;;;;5043907;28;20213;-61
2023/12/21 12:02:06;;;;;;;0.80;0.30;;;11.10;99.90;;;;;;5041135;28;20301;-60
2023/12/21 12:04:34;;;;;;;1.27;0.50;;;11.10;99.90;;;;;;5040333;28;20637;-61
2023/12/21 12:07:02;;;;;;;0.73;0.60;;;11.10;99.90;;;;;;5043004;28;20233;-61
2023/12/21 12:09:29;;;;;;;2.60;1.30;;;11.10;99.90;;;;;;5043792;28;20209;-61
2023/12/21 12:11:56;;;;;;;4.73;1.67;;;11.20;99.90;;;;;;5041829;28;20205;-61
2023/12/21 12:14:22;;;;;;;0.70;0.30;;;11.20;99.90;;;;;;5039996;28;20226;-60
2023/12/21 12:16:50;;;;;;;0.73;0.53;;;11.20;99.90;;;;;;5040647;28;20210;-61
2023/12/21 12:19:17;;;;;;;0.40;0.30;;;11.30;99.90;;;;;;5043639;28;20247;-61
2023/12/21 12:21:45;;;;;;;0.67;0.40;;;11.30;99.90;;;;;;5043403;28;20205;-61
2023/12/21 12:24:16;;;;;;;0.20;0.20;;;11.20;99.90;;;;;;5040051;28;20225;-61
2023/12/21 12:26:43;;;;;;;0.67;0.33;;;11.20;99.90;;;;;;5040044;28;20211;-61
2023/12/21 12:29:09;;;;;;;1.40;0.20;;;11.20;99.90;;;;;;5035269;28;20197;-61
2023/12/21 12:31:37;;;;;;;3.90;0.50;;;11.20;99.90;;;;;;5043325;28;20205;-61
2023/12/21 12:34:04;;;;;;;2.10;1.00;;;11.20;99.90;;;;;;5035123;28;20274;-60
2023/12/21 12:36:30;;;;;;;1.80;0.60;;;11.10;99.90;;;;;;5045321;28;20691;-61
2023/12/21 12:38:59;;;;;;;0.77;0.50;;;11.10;99.90;;;;;;5039858;28;20617;-61
2023/12/21 12:41:26;;;;;;;0.93;0.60;;;11.00;99.90;;;;;;5039609;28;20260;-61
2023/12/21 12:43:53;;;;;;;1.40;0.50;;;11.00;99.90;;;;;;5040189;28;20233;-61
2023/12/21 12:46:21;;;;;;;1.30;0.93;;;11.00;99.90;;;;;;5043225;28;20206;-61
2023/12/21 12:48:48;;;;;;;2.70;1.10;;;11.00;99.90;;;;;;5042886;28;20248;-60
2023/12/21 12:51:16;;;;;;;1.17;0.80;;;11.00;99.90;;;;;;5039455;28;20206;-60
2023/12/21 12:53:43;;;;;;;2.43;0.50;;;11.10;99.90;;;;;;5039620;28;20229;-60